sensor_id;sensor_type;location;lat;lon;timestamp;P1;durP1;ratioP1;P2;durP2;ratioP2
59239;SDS011;45010;53.640;10.578;2023-07-28T00:00:42;0.70;;;0.70;;
59239;SDS011;45010;53.640;10.578;2023-07-28T00:03:42;0.70;;;0.60;;
59239;SDS011;45010;53.640;10.578;2023-07-28T00:06:43;0.80;;;0.80;;
59239;SDS011;45010;53.640;10.578;2023-07-28T00:09:43;0.90;;;0.68;;
59239;SDS011;45010;53.640;10.578;2023-07-28T00:12:43;1.00;;;0.90;;
59239;SDS011;45010;53.640;10.578;2023-07-28T00:15:44;0.80;;;0.80;;
59239;SDS011;45010;53.640;10.578;2023-07-28T00:18:44;1.15;;;1.05;;
59239;SDS011;45010;53.640;10.578;2023-07-28T00:21:44;1.40;;;1.05;;
59239;SDS011;45010;53.640;10.578;2023-07-28T00:24:45;0.70;;;0.70;;
59239;SDS011;45010;53.640;10.578;2023-07-28T00:27:45;0.68;;;0.60;;
59239;SDS011;45010;53.640;10.578;2023-07-28T00:30:48;0.80;;;0.70;;
59239;SDS011;45010;53.640;10.578;2023-07-28T00:33:49;0.70;;;0.70;;
59239;SDS011;45010;53.640;10.578;2023-07-28T00:36:49;0.70;;;0.70;;
59239;SDS011;45010;53.640;10.578;2023-07-28T00:39:50;0.60;;;0.60;;
59239;SDS011;45010;53.640;10.578;2023-07-28T00:42:50;1.17;;;0.90;;
59239;SDS011;45010;53.640;10.578;2023-07-28T00:45:50;0.80;;;0.80;;
59239;SDS011;45010;53.640;10.578;2023-07-28T00:48:51;1.65;;;0.70;;
59239;SDS011;45010;53.640;10.578;2023-07-28T00:51:52;0.57;;;0.55;;
59239;SDS011;45010;53.640;10.578;2023-07-28T00:54:53;1.15;;;0.70;;
59239;SDS011;45010;53.640;10.578;2023-07-28T00:57:53;0.70;;;0.70;;
59239;SDS011;45010;53.640;10.578;2023-07-28T01:00:54;0.75;;;0.75;;
59239;SDS011;45010;53.640;10.578;2023-07-28T01:03:54;0.98;;;0.75;;
59239;SDS011;45010;53.640;10.578;2023-07-28T01:06:57;0.90;;;0.80;;
59239;SDS011;45010;53.640;10.578;2023-07-28T01:13:13;1.00;;;0.80;;
59239;SDS011;45010;53.640;10.578;2023-07-28T01:16:13;0.70;;;0.70;;
59239;SDS011;45010;53.640;10.578;2023-07-28T01:19:18;0.85;;;0.80;;
59239;SDS011;45010;53.640;10.578;2023-07-28T01:26:01;0.75;;;0.75;;
59239;SDS011;45010;53.640;10.578;2023-07-28T01:29:06;0.70;;;0.70;;
59239;SDS011;45010;53.640;10.578;2023-07-28T01:32:06;0.85;;;0.73;;
59239;SDS011;45010;53.640;10.578;2023-07-28T01:35:07;0.80;;;0.80;;
59239;SDS011;45010;53.640;10.578;2023-07-28T01:38:08;0.80;;;0.80;;
59239;SDS011;45010;53.640;10.578;2023-07-28T01:41:08;0.60;;;0.60;;
59239;SDS011;45010;53.640;10.578;2023-07-28T01:44:09;0.90;;;0.80;;
59239;SDS011;45010;53.640;10.578;2023-07-28T01:47:12;0.47;;;0.47;;
59239;SDS011;45010;53.640;10.578;2023-07-28T01:50:12;0.52;;;0.52;;
59239;SDS011;45010;53.640;10.578;2023-07-28T01:53:13;0.80;;;0.80;;
59239;SDS011;45010;53.640;10.578;2023-07-28T01:56:13;0.70;;;0.70;;
59239;SDS011;45010;53.640;10.578;2023-07-28T01:59:14;0.70;;;0.70;;
59239;SDS011;45010;53.640;10.578;2023-07-28T02:02:14;0.85;;;0.80;;
59239;SDS011;45010;53.640;10.578;2023-07-28T02:05:15;0.60;;;0.60;;
59239;SDS011;45010;53.640;10.578;2023-07-28T02:08:15;0.80;;;0.60;;
59239;SDS011;45010;53.640;10.578;2023-07-28T02:11:15;0.73;;;0.70;;
59239;SDS011;45010;53.640;10.578;2023-07-28T02:14:16;0.90;;;0.80;;
59239;SDS011;45010;53.640;10.578;2023-07-28T02:17:16;0.70;;;0.70;;
59239;SDS011;45010;53.640;10.578;2023-07-28T02:20:16;0.70;;;0.70;;
59239;SDS011;45010;53.640;10.578;2023-07-28T02:23:17;0.60;;;0.60;;
59239;SDS011;45010;53.640;10.578;2023-07-28T02:26:17;0.60;;;0.60;;
59239;SDS011;45010;53.640;10.578;2023-07-28T02:29:17;0.93;;;0.70;;
59239;SDS011;45010;53.640;10.578;2023-07-28T02:32:18;0.65;;;0.63;;
59239;SDS011;45010;53.640;10.578;2023-07-28T02:35:18;0.70;;;0.70;;
59239;SDS011;45010;53.640;10.578;2023-07-28T02:38:18;0.60;;;0.60;;
59239;SDS011;45010;53.640;10.578;2023-07-28T02:41:20;0.70;;;0.70;;
59239;SDS011;45010;53.640;10.578;2023-07-28T02:44:20;0.80;;;0.65;;
59239;SDS011;45010;53.640;10.578;2023-07-28T02:47:20;0.60;;;0.60;;
59239;SDS011;45010;53.640;10.578;2023-07-28T02:50:21;0.80;;;0.80;;
59239;SDS011;45010;53.640;10.578;2023-07-28T02:53:21;0.77;;;0.77;;
59239;SDS011;45010;53.640;10.578;2023-07-28T02:56:21;0.70;;;0.70;;
59239;SDS011;45010;53.640;10.578;2023-07-28T02:59:22;0.70;;;0.70;;
59239;SDS011;45010;53.640;10.578;2023-07-28T03:02:23;0.77;;;0.65;;
59239;SDS011;45010;53.640;10.578;2023-07-28T03:05:23;1.05;;;0.90;;
59239;SDS011;45010;53.640;10.578;2023-07-28T03:08:23;1.00;;;0.77;;
59239;SDS011;45010;53.640;10.578;2023-07-28T03:11:24;0.70;;;0.70;;
59239;SDS011;45010;53.640;10.578;2023-07-28T03:14:24;0.60;;;0.60;;
59239;SDS011;45010;53.640;10.578;2023-07-28T03:17:24;1.10;;;0.80;;
59239;SDS011;45010;53.640;10.578;2023-07-28T03:20:25;0.70;;;0.70;;
59239;SDS011;45010;53.640;10.578;2023-07-28T03:23:25;0.55;;;0.55;;
59239;SDS011;45010;53.640;10.578;2023-07-28T03:26:25;0.60;;;0.50;;
59239;SDS011;45010;53.640;10.578;2023-07-28T03:29:26;0.63;;;0.63;;
59239;SDS011;45010;53.640;10.578;2023-07-28T03:32:26;0.75;;;0.70;;
59239;SDS011;45010;53.640;10.578;2023-07-28T03:35:26;0.60;;;0.60;;
59239;SDS011;45010;53.640;10.578;2023-07-28T03:38:27;0.65;;;0.65;;
59239;SDS011;45010;53.640;10.578;2023-07-28T03:41:27;0.50;;;0.50;;
59239;SDS011;45010;53.640;10.578;2023-07-28T03:44:27;1.00;;;0.80;;
59239;SDS011;45010;53.640;10.578;2023-07-28T03:47:28;0.70;;;0.70;;
59239;SDS011;45010;53.640;10.578;2023-07-28T03:50:28;1.38;;;0.73;;
59239;SDS011;45010;53.640;10.578;2023-07-28T03:53:29;0.60;;;0.60;;
59239;SDS011;45010;53.640;10.578;2023-07-28T03:56:29;0.60;;;0.60;;
59239;SDS011;45010;53.640;10.578;2023-07-28T03:59:29;0.80;;;0.80;;
59239;SDS011;45010;53.640;10.578;2023-07-28T04:02:29;0.60;;;0.57;;
59239;SDS011;45010;53.640;10.578;2023-07-28T04:05:30;0.70;;;0.70;;
59239;SDS011;45010;53.640;10.578;2023-07-28T04:08:30;0.70;;;0.65;;
59239;SDS011;45010;53.640;10.578;2023-07-28T04:11:30;0.60;;;0.60;;
59239;SDS011;45010;53.640;10.578;2023-07-28T04:14:31;0.60;;;0.60;;
59239;SDS011;45010;53.640;10.578;2023-07-28T04:17:31;0.60;;;0.60;;
59239;SDS011;45010;53.640;10.578;2023-07-28T04:20:31;0.55;;;0.55;;
59239;SDS011;45010;53.640;10.578;2023-07-28T04:23:32;0.63;;;0.60;;
59239;SDS011;45010;53.640;10.578;2023-07-28T04:26:32;0.77;;;0.60;;
59239;SDS011;45010;53.640;10.578;2023-07-28T04:29:32;0.82;;;0.40;;
59239;SDS011;45010;53.640;10.578;2023-07-28T04:32:33;0.52;;;0.52;;
59239;SDS011;45010;53.640;10.578;2023-07-28T04:35:33;0.50;;;0.50;;
59239;SDS011;45010;53.640;10.578;2023-07-28T04:38:33;0.90;;;0.47;;
59239;SDS011;45010;53.640;10.578;2023-07-28T04:41:34;1.25;;;0.50;;
59239;SDS011;45010;53.640;10.578;2023-07-28T04:44:34;0.52;;;0.52;;
59239;SDS011;45010;53.640;10.578;2023-07-28T04:47:34;0.77;;;0.60;;
59239;SDS011;45010;53.640;10.578;2023-07-28T04:50:35;0.50;;;0.50;;
59239;SDS011;45010;53.640;10.578;2023-07-28T04:53:36;0.47;;;0.47;;
59239;SDS011;45010;53.640;10.578;2023-07-28T04:56:36;0.50;;;0.50;;
59239;SDS011;45010;53.640;10.578;2023-07-28T04:59:36;0.50;;;0.50;;
59239;SDS011;45010;53.640;10.578;2023-07-28T05:02:37;0.50;;;0.50;;
59239;SDS011;45010;53.640;10.578;2023-07-28T05:05:37;0.70;;;0.60;;
59239;SDS011;45010;53.640;10.578;2023-07-28T05:08:37;0.50;;;0.50;;
59239;SDS011;45010;53.640;10.578;2023-07-28T05:11:38;0.40;;;0.40;;
59239;SDS011;45010;53.640;10.578;2023-07-28T05:14:38;0.60;;;0.60;;
59239;SDS011;45010;53.640;10.578;2023-07-28T05:17:38;1.30;;;0.50;;
59239;SDS011;45010;53.640;10.578;2023-07-28T05:20:39;0.43;;;0.43;;
59239;SDS011;45010;53.640;10.578;2023-07-28T05:23:39;0.35;;;0.35;;
59239;SDS011;45010;53.640;10.578;2023-07-28T05:26:39;0.50;;;0.50;;
59239;SDS011;45010;53.640;10.578;2023-07-28T05:29:40;0.60;;;0.40;;
59239;SDS011;45010;53.640;10.578;2023-07-28T05:32:40;0.60;;;0.60;;
59239;SDS011;45010;53.640;10.578;2023-07-28T05:35:40;0.60;;;0.60;;
59239;SDS011;45010;53.640;10.578;2023-07-28T05:38:41;0.52;;;0.50;;
59239;SDS011;45010;53.640;10.578;2023-07-28T05:41:41;0.40;;;0.40;;
59239;SDS011;45010;53.640;10.578;2023-07-28T05:44:41;0.60;;;0.50;;
59239;SDS011;45010;53.640;10.578;2023-07-28T05:47:42;0.52;;;0.50;;
59239;SDS011;45010;53.640;10.578;2023-07-28T05:50:42;0.52;;;0.52;;
59239;SDS011;45010;53.640;10.578;2023-07-28T05:53:42;0.50;;;0.40;;
59239;SDS011;45010;53.640;10.578;2023-07-28T05:56:43;0.60;;;0.60;;
59239;SDS011;45010;53.640;10.578;2023-07-28T05:59:43;0.50;;;0.50;;
59239;SDS011;45010;53.640;10.578;2023-07-28T06:02:44;0.43;;;0.43;;
59239;SDS011;45010;53.640;10.578;2023-07-28T06:05:44;0.50;;;0.50;;
59239;SDS011;45010;53.640;10.578;2023-07-28T06:08:44;0.50;;;0.50;;
59239;SDS011;45010;53.640;10.578;2023-07-28T06:11:44;0.82;;;0.70;;
59239;SDS011;45010;53.640;10.578;2023-07-28T06:14:45;0.50;;;0.50;;
59239;SDS011;45010;53.640;10.578;2023-07-28T06:17:45;0.65;;;0.65;;
59239;SDS011;45010;53.640;10.578;2023-07-28T06:20:45;0.50;;;0.50;;
59239;SDS011;45010;53.640;10.578;2023-07-28T06:23:46;0.40;;;0.40;;
59239;SDS011;45010;53.640;10.578;2023-07-28T06:26:46;0.60;;;0.60;;
59239;SDS011;45010;53.640;10.578;2023-07-28T06:29:46;0.60;;;0.60;;
59239;SDS011;45010;53.640;10.578;2023-07-28T06:32:48;0.52;;;0.52;;
59239;SDS011;45010;53.640;10.578;2023-07-28T06:35:48;0.60;;;0.60;;
59239;SDS011;45010;53.640;10.578;2023-07-28T06:38:49;0.50;;;0.50;;
59239;SDS011;45010;53.640;10.578;2023-07-28T06:41:50;0.60;;;0.60;;
59239;SDS011;45010;53.640;10.578;2023-07-28T06:44:51;0.50;;;0.50;;
59239;SDS011;45010;53.640;10.578;2023-07-28T06:47:51;1.08;;;0.68;;
59239;SDS011;45010;53.640;10.578;2023-07-28T06:50:51;0.40;;;0.40;;
59239;SDS011;45010;53.640;10.578;2023-07-28T06:53:52;0.50;;;0.50;;
59239;SDS011;45010;53.640;10.578;2023-07-28T06:56:52;0.70;;;0.60;;
59239;SDS011;45010;53.640;10.578;2023-07-28T06:59:53;0.50;;;0.50;;
59239;SDS011;45010;53.640;10.578;2023-07-28T07:02:53;0.65;;;0.60;;
59239;SDS011;45010;53.640;10.578;2023-07-28T07:05:53;0.75;;;0.50;;
59239;SDS011;45010;53.640;10.578;2023-07-28T07:08:53;0.52;;;0.38;;
59239;SDS011;45010;53.640;10.578;2023-07-28T07:11:54;0.40;;;0.40;;
59239;SDS011;45010;53.640;10.578;2023-07-28T07:14:55;0.63;;;0.63;;
59239;SDS011;45010;53.640;10.578;2023-07-28T07:17:55;0.70;;;0.70;;
59239;SDS011;45010;53.640;10.578;2023-07-28T07:20:55;0.55;;;0.55;;
59239;SDS011;45010;53.640;10.578;2023-07-28T07:23:56;0.77;;;0.50;;
59239;SDS011;45010;53.640;10.578;2023-07-28T07:26:56;0.50;;;0.50;;
59239;SDS011;45010;53.640;10.578;2023-07-28T07:29:56;0.80;;;0.68;;
59239;SDS011;45010;53.640;10.578;2023-07-28T07:32:57;0.50;;;0.50;;
59239;SDS011;45010;53.640;10.578;2023-07-28T07:35:57;0.52;;;0.50;;
59239;SDS011;45010;53.640;10.578;2023-07-28T07:38:57;0.68;;;0.43;;
59239;SDS011;45010;53.640;10.578;2023-07-28T07:41:58;0.75;;;0.50;;
59239;SDS011;45010;53.640;10.578;2023-07-28T07:44:58;0.45;;;0.45;;
59239;SDS011;45010;53.640;10.578;2023-07-28T07:47:59;0.40;;;0.40;;
59239;SDS011;45010;53.640;10.578;2023-07-28T07:50:59;0.85;;;0.60;;
59239;SDS011;45010;53.640;10.578;2023-07-28T07:54:00;0.68;;;0.63;;
59239;SDS011;45010;53.640;10.578;2023-07-28T07:57:01;0.40;;;0.40;;
59239;SDS011;45010;53.640;10.578;2023-07-28T08:00:02;0.50;;;0.50;;
59239;SDS011;45010;53.640;10.578;2023-07-28T08:03:03;0.60;;;0.60;;
59239;SDS011;45010;53.640;10.578;2023-07-28T08:06:04;0.60;;;0.60;;
59239;SDS011;45010;53.640;10.578;2023-07-28T08:09:05;0.43;;;0.43;;
59239;SDS011;45010;53.640;10.578;2023-07-28T08:12:06;0.60;;;0.43;;
59239;SDS011;45010;53.640;10.578;2023-07-28T08:15:07;0.60;;;0.50;;
59239;SDS011;45010;53.640;10.578;2023-07-28T08:18:08;0.50;;;0.50;;
59239;SDS011;45010;53.640;10.578;2023-07-28T08:21:08;0.40;;;0.40;;
59239;SDS011;45010;53.640;10.578;2023-07-28T08:24:08;0.60;;;0.60;;
59239;SDS011;45010;53.640;10.578;2023-07-28T08:27:09;0.40;;;0.40;;
59239;SDS011;45010;53.640;10.578;2023-07-28T08:30:09;0.55;;;0.55;;
59239;SDS011;45010;53.640;10.578;2023-07-28T08:33:10;0.52;;;0.52;;
59239;SDS011;45010;53.640;10.578;2023-07-28T08:36:10;0.55;;;0.55;;
59239;SDS011;45010;53.640;10.578;2023-07-28T08:39:10;0.40;;;0.40;;
59239;SDS011;45010;53.640;10.578;2023-07-28T08:42:11;0.60;;;0.40;;
59239;SDS011;45010;53.640;10.578;2023-07-28T08:45:12;0.40;;;0.40;;
59239;SDS011;45010;53.640;10.578;2023-07-28T08:48:13;0.50;;;0.50;;
59239;SDS011;45010;53.640;10.578;2023-07-28T08:51:13;0.50;;;0.50;;
59239;SDS011;45010;53.640;10.578;2023-07-28T08:54:13;0.40;;;0.40;;
59239;SDS011;45010;53.640;10.578;2023-07-28T08:57:14;0.50;;;0.40;;
59239;SDS011;45010;53.640;10.578;2023-07-28T09:00:14;0.63;;;0.47;;
59239;SDS011;45010;53.640;10.578;2023-07-28T09:03:15;0.60;;;0.60;;
59239;SDS011;45010;53.640;10.578;2023-07-28T09:06:19;0.50;;;0.50;;
59239;SDS011;45010;53.640;10.578;2023-07-28T09:09:31;0.40;;;0.40;;
59239;SDS011;45010;53.640;10.578;2023-07-28T09:12:32;0.30;;;0.30;;
59239;SDS011;45010;53.640;10.578;2023-07-28T09:15:34;0.38;;;0.38;;
59239;SDS011;45010;53.640;10.578;2023-07-28T09:18:35;0.60;;;0.60;;
59239;SDS011;45010;53.640;10.578;2023-07-28T09:21:37;0.50;;;0.50;;
59239;SDS011;45010;53.640;10.578;2023-07-28T09:24:38;0.63;;;0.50;;
59239;SDS011;45010;53.640;10.578;2023-07-28T09:27:39;0.50;;;0.50;;
59239;SDS011;45010;53.640;10.578;2023-07-28T09:30:46;0.43;;;0.43;;
59239;SDS011;45010;53.640;10.578;2023-07-28T09:33:49;0.50;;;0.50;;
59239;SDS011;45010;53.640;10.578;2023-07-28T09:36:49;0.40;;;0.40;;
59239;SDS011;45010;53.640;10.578;2023-07-28T09:39:49;0.40;;;0.40;;
59239;SDS011;45010;53.640;10.578;2023-07-28T09:42:50;0.52;;;0.52;;
59239;SDS011;45010;53.640;10.578;2023-07-28T09:45:50;0.50;;;0.50;;
59239;SDS011;45010;53.640;10.578;2023-07-28T09:48:52;0.60;;;0.60;;
59239;SDS011;45010;53.640;10.578;2023-07-28T09:51:57;0.43;;;0.43;;
59239;SDS011;45010;53.640;10.578;2023-07-28T09:55:07;0.50;;;0.50;;
59239;SDS011;45010;53.640;10.578;2023-07-28T09:58:11;0.60;;;0.60;;
59239;SDS011;45010;53.640;10.578;2023-07-28T10:01:16;0.47;;;0.45;;
59239;SDS011;45010;53.640;10.578;2023-07-28T10:04:17;0.57;;;0.57;;
59239;SDS011;45010;53.640;10.578;2023-07-28T10:07:17;0.43;;;0.43;;
59239;SDS011;45010;53.640;10.578;2023-07-28T10:10:18;0.40;;;0.40;;
59239;SDS011;45010;53.640;10.578;2023-07-28T10:13:19;0.45;;;0.45;;
59239;SDS011;45010;53.640;10.578;2023-07-28T10:16:29;0.40;;;0.40;;
59239;SDS011;45010;53.640;10.578;2023-07-28T10:19:35;0.43;;;0.30;;
59239;SDS011;45010;53.640;10.578;2023-07-28T10:22:44;0.50;;;0.50;;
59239;SDS011;45010;53.640;10.578;2023-07-28T10:25:45;0.32;;;0.32;;
59239;SDS011;45010;53.640;10.578;2023-07-28T10:28:45;0.50;;;0.50;;
59239;SDS011;45010;53.640;10.578;2023-07-28T10:31:49;0.38;;;0.38;;
59239;SDS011;45010;53.640;10.578;2023-07-28T10:35:00;0.43;;;0.43;;
59239;SDS011;45010;53.640;10.578;2023-07-28T10:41:28;0.38;;;0.38;;
59239;SDS011;45010;53.640;10.578;2023-07-28T10:44:28;0.40;;;0.40;;
59239;SDS011;45010;53.640;10.578;2023-07-28T10:47:29;0.30;;;0.30;;
59239;SDS011;45010;53.640;10.578;2023-07-28T10:50:30;0.40;;;0.40;;
59239;SDS011;45010;53.640;10.578;2023-07-28T10:53:31;0.50;;;0.50;;
59239;SDS011;45010;53.640;10.578;2023-07-28T10:56:32;0.30;;;0.30;;
59239;SDS011;45010;53.640;10.578;2023-07-28T10:59:33;0.40;;;0.40;;
59239;SDS011;45010;53.640;10.578;2023-07-28T11:02:38;0.50;;;0.50;;
59239;SDS011;45010;53.640;10.578;2023-07-28T11:05:42;0.40;;;0.40;;
59239;SDS011;45010;53.640;10.578;2023-07-28T11:08:43;0.50;;;0.50;;
59239;SDS011;45010;53.640;10.578;2023-07-28T11:11:43;0.50;;;0.50;;
59239;SDS011;45010;53.640;10.578;2023-07-28T11:14:44;0.50;;;0.50;;
59239;SDS011;45010;53.640;10.578;2023-07-28T11:17:46;0.55;;;0.50;;
59239;SDS011;45010;53.640;10.578;2023-07-28T11:20:48;0.35;;;0.35;;
59239;SDS011;45010;53.640;10.578;2023-07-28T11:23:48;0.60;;;0.60;;
59239;SDS011;45010;53.640;10.578;2023-07-28T11:26:49;0.40;;;0.40;;
59239;SDS011;45010;53.640;10.578;2023-07-28T11:29:49;0.70;;;0.50;;
59239;SDS011;45010;53.640;10.578;2023-07-28T11:32:52;0.60;;;0.47;;
59239;SDS011;45010;53.640;10.578;2023-07-28T11:35:53;0.35;;;0.35;;
59239;SDS011;45010;53.640;10.578;2023-07-28T11:38:55;0.68;;;0.50;;
59239;SDS011;45010;53.640;10.578;2023-07-28T11:41:57;0.50;;;0.50;;
59239;SDS011;45010;53.640;10.578;2023-07-28T11:44:57;0.40;;;0.40;;
59239;SDS011;45010;53.640;10.578;2023-07-28T11:51:06;0.50;;;0.50;;
59239;SDS011;45010;53.640;10.578;2023-07-28T11:54:10;0.40;;;0.40;;
59239;SDS011;45010;53.640;10.578;2023-07-28T11:57:14;0.40;;;0.40;;
59239;SDS011;45010;53.640;10.578;2023-07-28T12:00:14;0.30;;;0.30;;
59239;SDS011;45010;53.640;10.578;2023-07-28T12:03:18;0.40;;;0.40;;
59239;SDS011;45010;53.640;10.578;2023-07-28T12:06:18;0.30;;;0.30;;
59239;SDS011;45010;53.640;10.578;2023-07-28T12:09:18;0.65;;;0.65;;
59239;SDS011;45010;53.640;10.578;2023-07-28T12:12:19;0.45;;;0.45;;
59239;SDS011;45010;53.640;10.578;2023-07-28T12:15:26;0.40;;;0.40;;
59239;SDS011;45010;53.640;10.578;2023-07-28T12:18:33;0.57;;;0.57;;
59239;SDS011;45010;53.640;10.578;2023-07-28T12:21:33;0.40;;;0.40;;
59239;SDS011;45010;53.640;10.578;2023-07-28T12:24:34;0.40;;;0.40;;
59239;SDS011;45010;53.640;10.578;2023-07-28T12:27:34;0.50;;;0.50;;
59239;SDS011;45010;53.640;10.578;2023-07-28T12:30:35;0.55;;;0.40;;
59239;SDS011;45010;53.640;10.578;2023-07-28T12:33:37;0.40;;;0.40;;
59239;SDS011;45010;53.640;10.578;2023-07-28T12:36:37;0.57;;;0.40;;
59239;SDS011;45010;53.640;10.578;2023-07-28T12:39:38;0.30;;;0.30;;
59239;SDS011;45010;53.640;10.578;2023-07-28T12:42:39;0.30;;;0.30;;
59239;SDS011;45010;53.640;10.578;2023-07-28T12:45:39;0.30;;;0.30;;
59239;SDS011;45010;53.640;10.578;2023-07-28T12:48:39;0.30;;;0.30;;
59239;SDS011;45010;53.640;10.578;2023-07-28T12:51:40;0.50;;;0.47;;
59239;SDS011;45010;53.640;10.578;2023-07-28T12:54:41;0.47;;;0.47;;
59239;SDS011;45010;53.640;10.578;2023-07-28T12:57:43;0.30;;;0.30;;
59239;SDS011;45010;53.640;10.578;2023-07-28T13:00:44;0.30;;;0.30;;
59239;SDS011;45010;53.640;10.578;2023-07-28T13:03:44;0.47;;;0.47;;
59239;SDS011;45010;53.640;10.578;2023-07-28T13:06:44;0.40;;;0.40;;
59239;SDS011;45010;53.640;10.578;2023-07-28T13:09:45;0.52;;;0.52;;
59239;SDS011;45010;53.640;10.578;2023-07-28T13:12:45;0.70;;;0.70;;
59239;SDS011;45010;53.640;10.578;2023-07-28T13:15:46;0.40;;;0.40;;
59239;SDS011;45010;53.640;10.578;2023-07-28T13:18:46;0.55;;;0.50;;
59239;SDS011;45010;53.640;10.578;2023-07-28T13:21:47;0.40;;;0.40;;
59239;SDS011;45010;53.640;10.578;2023-07-28T13:24:47;0.43;;;0.43;;
59239;SDS011;45010;53.640;10.578;2023-07-28T13:27:47;0.45;;;0.40;;
59239;SDS011;45010;53.640;10.578;2023-07-28T13:30:47;0.32;;;0.32;;
59239;SDS011;45010;53.640;10.578;2023-07-28T13:33:48;0.40;;;0.40;;
59239;SDS011;45010;53.640;10.578;2023-07-28T13:36:48;0.50;;;0.50;;
59239;SDS011;45010;53.640;10.578;2023-07-28T13:39:48;0.50;;;0.50;;
59239;SDS011;45010;53.640;10.578;2023-07-28T13:42:49;0.50;;;0.50;;
59239;SDS011;45010;53.640;10.578;2023-07-28T13:45:49;0.35;;;0.35;;
59239;SDS011;45010;53.640;10.578;2023-07-28T13:48:50;0.47;;;0.47;;
59239;SDS011;45010;53.640;10.578;2023-07-28T13:51:50;0.50;;;0.50;;
59239;SDS011;45010;53.640;10.578;2023-07-28T13:54:51;0.40;;;0.40;;
59239;SDS011;45010;53.640;10.578;2023-07-28T13:57:51;0.40;;;0.40;;
59239;SDS011;45010;53.640;10.578;2023-07-28T14:00:51;0.60;;;0.60;;
59239;SDS011;45010;53.640;10.578;2023-07-28T14:03:52;0.40;;;0.40;;
59239;SDS011;45010;53.640;10.578;2023-07-28T14:06:52;0.40;;;0.40;;
59239;SDS011;45010;53.640;10.578;2023-07-28T14:09:52;0.50;;;0.50;;
59239;SDS011;45010;53.640;10.578;2023-07-28T14:12:53;0.40;;;0.40;;
59239;SDS011;45010;53.640;10.578;2023-07-28T14:15:53;0.40;;;0.40;;
59239;SDS011;45010;53.640;10.578;2023-07-28T14:18:53;1.25;;;0.50;;
59239;SDS011;45010;53.640;10.578;2023-07-28T14:21:54;0.35;;;0.35;;
59239;SDS011;45010;53.640;10.578;2023-07-28T14:24:54;0.40;;;0.40;;
59239;SDS011;45010;53.640;10.578;2023-07-28T14:27:54;0.50;;;0.50;;
59239;SDS011;45010;53.640;10.578;2023-07-28T14:30:55;0.30;;;0.30;;
59239;SDS011;45010;53.640;10.578;2023-07-28T14:33:55;0.38;;;0.35;;
59239;SDS011;45010;53.640;10.578;2023-07-28T14:36:56;0.40;;;0.40;;
59239;SDS011;45010;53.640;10.578;2023-07-28T14:39:56;0.40;;;0.40;;
59239;SDS011;45010;53.640;10.578;2023-07-28T14:42:56;0.40;;;0.40;;
59239;SDS011;45010;53.640;10.578;2023-07-28T14:45:57;0.40;;;0.40;;
59239;SDS011;45010;53.640;10.578;2023-07-28T14:48:57;0.45;;;0.45;;
59239;SDS011;45010;53.640;10.578;2023-07-28T14:51:58;0.40;;;0.40;;
59239;SDS011;45010;53.640;10.578;2023-07-28T14:54:58;0.63;;;0.50;;
59239;SDS011;45010;53.640;10.578;2023-07-28T14:57:58;0.40;;;0.40;;
59239;SDS011;45010;53.640;10.578;2023-07-28T15:00:59;0.60;;;0.60;;
59239;SDS011;45010;53.640;10.578;2023-07-28T15:04:00;0.50;;;0.50;;
59239;SDS011;45010;53.640;10.578;2023-07-28T15:07:02;0.35;;;0.35;;
59239;SDS011;45010;53.640;10.578;2023-07-28T15:10:03;0.30;;;0.30;;
59239;SDS011;45010;53.640;10.578;2023-07-28T15:13:03;0.40;;;0.40;;
59239;SDS011;45010;53.640;10.578;2023-07-28T15:16:04;0.50;;;0.50;;
59239;SDS011;45010;53.640;10.578;2023-07-28T15:19:05;0.55;;;0.55;;
59239;SDS011;45010;53.640;10.578;2023-07-28T15:22:05;0.40;;;0.40;;
59239;SDS011;45010;53.640;10.578;2023-07-28T15:25:06;0.40;;;0.32;;
59239;SDS011;45010;53.640;10.578;2023-07-28T15:28:06;1.00;;;0.40;;
59239;SDS011;45010;53.640;10.578;2023-07-28T15:31:07;0.88;;;0.50;;
59239;SDS011;45010;53.640;10.578;2023-07-28T15:34:07;0.63;;;0.40;;
59239;SDS011;45010;53.640;10.578;2023-07-28T15:37:07;0.40;;;0.40;;
59239;SDS011;45010;53.640;10.578;2023-07-28T15:40:08;0.93;;;0.50;;
59239;SDS011;45010;53.640;10.578;2023-07-28T15:43:08;0.40;;;0.40;;
59239;SDS011;45010;53.640;10.578;2023-07-28T15:46:09;0.50;;;0.50;;
59239;SDS011;45010;53.640;10.578;2023-07-28T15:49:10;0.55;;;0.50;;
59239;SDS011;45010;53.640;10.578;2023-07-28T15:52:10;0.22;;;0.22;;
59239;SDS011;45010;53.640;10.578;2023-07-28T15:55:10;0.40;;;0.40;;
59239;SDS011;45010;53.640;10.578;2023-07-28T15:58:10;0.40;;;0.40;;
59239;SDS011;45010;53.640;10.578;2023-07-28T16:01:11;0.40;;;0.40;;
59239;SDS011;45010;53.640;10.578;2023-07-28T16:04:11;0.57;;;0.57;;
59239;SDS011;45010;53.640;10.578;2023-07-28T16:07:11;0.35;;;0.35;;
59239;SDS011;45010;53.640;10.578;2023-07-28T16:10:12;0.43;;;0.40;;
59239;SDS011;45010;53.640;10.578;2023-07-28T16:13:12;0.50;;;0.50;;
59239;SDS011;45010;53.640;10.578;2023-07-28T16:16:12;0.50;;;0.50;;
59239;SDS011;45010;53.640;10.578;2023-07-28T16:19:13;0.50;;;0.50;;
59239;SDS011;45010;53.640;10.578;2023-07-28T16:22:13;0.47;;;0.47;;
59239;SDS011;45010;53.640;10.578;2023-07-28T16:25:15;0.40;;;0.40;;
59239;SDS011;45010;53.640;10.578;2023-07-28T16:28:16;0.40;;;0.40;;
59239;SDS011;45010;53.640;10.578;2023-07-28T16:31:16;0.50;;;0.50;;
59239;SDS011;45010;53.640;10.578;2023-07-28T16:34:17;0.50;;;0.50;;
59239;SDS011;45010;53.640;10.578;2023-07-28T16:37:17;0.30;;;0.30;;
59239;SDS011;45010;53.640;10.578;2023-07-28T16:40:17;0.40;;;0.40;;
59239;SDS011;45010;53.640;10.578;2023-07-28T16:43:18;0.50;;;0.50;;
59239;SDS011;45010;53.640;10.578;2023-07-28T16:46:18;0.40;;;0.40;;
59239;SDS011;45010;53.640;10.578;2023-07-28T16:49:18;0.43;;;0.40;;
59239;SDS011;45010;53.640;10.578;2023-07-28T16:52:18;0.50;;;0.50;;
59239;SDS011;45010;53.640;10.578;2023-07-28T16:55:20;0.70;;;0.70;;
59239;SDS011;45010;53.640;10.578;2023-07-28T16:58:20;0.40;;;0.40;;
59239;SDS011;45010;53.640;10.578;2023-07-28T17:01:21;0.40;;;0.40;;
59239;SDS011;45010;53.640;10.578;2023-07-28T17:04:22;0.40;;;0.40;;
59239;SDS011;45010;53.640;10.578;2023-07-28T17:07:22;0.57;;;0.57;;
59239;SDS011;45010;53.640;10.578;2023-07-28T17:10:22;0.38;;;0.38;;
59239;SDS011;45010;53.640;10.578;2023-07-28T17:13:23;0.50;;;0.50;;
59239;SDS011;45010;53.640;10.578;2023-07-28T17:16:23;0.45;;;0.45;;
59239;SDS011;45010;53.640;10.578;2023-07-28T17:19:25;0.40;;;0.40;;
59239;SDS011;45010;53.640;10.578;2023-07-28T17:22:25;0.32;;;0.32;;
59239;SDS011;45010;53.640;10.578;2023-07-28T17:25:26;0.50;;;0.50;;
59239;SDS011;45010;53.640;10.578;2023-07-28T17:28:26;0.40;;;0.40;;
59239;SDS011;45010;53.640;10.578;2023-07-28T17:31:26;0.30;;;0.30;;
59239;SDS011;45010;53.640;10.578;2023-07-28T17:34:27;0.47;;;0.47;;
59239;SDS011;45010;53.640;10.578;2023-07-28T17:37:27;0.52;;;0.52;;
59239;SDS011;45010;53.640;10.578;2023-07-28T17:40:27;0.47;;;0.47;;
59239;SDS011;45010;53.640;10.578;2023-07-28T17:43:28;0.30;;;0.30;;
59239;SDS011;45010;53.640;10.578;2023-07-28T17:46:28;0.55;;;0.55;;
59239;SDS011;45010;53.640;10.578;2023-07-28T17:49:28;0.43;;;0.43;;
59239;SDS011;45010;53.640;10.578;2023-07-28T17:52:29;0.40;;;0.40;;
59239;SDS011;45010;53.640;10.578;2023-07-28T17:55:29;0.60;;;0.60;;
59239;SDS011;45010;53.640;10.578;2023-07-28T17:58:29;0.40;;;0.40;;
59239;SDS011;45010;53.640;10.578;2023-07-28T18:01:29;0.45;;;0.40;;
59239;SDS011;45010;53.640;10.578;2023-07-28T18:04:30;0.50;;;0.50;;